Time;durP1;ratioP1;P1;durP2;ratioP2;P2;SDS_P1;SDS_P2;PMS_P1;PMS_P2;Temp;Humidity;BMP_temperature;BMP_pressure;BME280_temperature;BME280_humidity;BME280_pressure;Samples;Min_cycle;Max_cycle;Signal;HPM_P1;HPM_P2
2023/12/28 00:01:23;;;;;;;22.07;11.47;;;;;;;-141.97;nan;46029.81;4972654;28;20242;-82
2023/12/28 00:03:49;;;;;;;21.80;11.90;;;;;;;-141.97;nan;45806.97;4972341;28;20560;-81
2023/12/28 00:06:15;;;;;;;23.77;11.13;;;;;;;-141.97;nan;46246.94;4972662;28;20171;-81
2023/12/28 00:08:40;;;;;;;21.03;11.00;;;;;;;-141.97;nan;45966.44;4989843;28;20180;-78
2023/12/28 00:11:06;;;;;;;21.40;11.03;;;;;;;-141.97;nan;46181.59;4979486;28;20165;-81
2023/12/28 00:13:31;;;;;;;23.23;11.97;;;;;;;-141.97;nan;45908.78;4972612;28;20192;-81
2023/12/28 00:15:57;;;;;;;29.67;13.10;;;;;;;-141.97;nan;46018.28;4972218;28;20160;-82
2023/12/28 00:18:22;;;;;;;23.87;12.30;;;;;;;-141.97;nan;46039.44;4972074;28;20625;-82
2023/12/28 00:20:47;;;;;;;20.87;12.17;;;;;;;-141.97;nan;45997.16;4972586;28;20701;-82
2023/12/28 00:23:13;;;;;;;30.03;14.23;;;;;;;-141.97;nan;46250.78;4941073;28;20189;-82
2023/12/28 00:25:38;;;;;;;25.07;12.67;;;;;;;-141.97;nan;46162.38;4933521;29;21056;-82
2023/12/28 00:28:04;;;;;;;22.77;11.10;;;;;;;-141.97;nan;45874.22;4933505;29;20193;-82
2023/12/28 00:30:29;;;;;;;19.87;9.33;;;;;;;-141.97;nan;45966.44;4933748;29;20584;-82
2023/12/28 00:32:55;;;;;;;19.60;9.80;;;;;;;-141.97;nan;46398.72;4933141;29;20228;-82
2023/12/28 00:35:21;;;;;;;16.37;9.00;;;;;;;-141.97;nan;46001.00;4933454;29;20264;-84
2023/12/28 00:37:46;;;;;;;19.30;9.80;;;;;;;-141.97;nan;45908.78;4916438;29;20172;-81
2023/12/28 00:40:11;;;;;;;19.33;9.83;;;;;;;-141.97;nan;46223.88;4933152;29;20177;-80
2023/12/28 00:42:38;;;;;;;16.40;9.20;;;;;;;-141.97;nan;46079.78;4933433;29;20233;-82
2023/12/28 00:45:04;;;;;;;18.60;9.37;;;;;;;-141.97;nan;46387.19;4933291;29;20165;-81
2023/12/28 00:47:29;;;;;;;17.17;9.23;;;;;;;-141.97;nan;46212.34;4933316;29;20459;-82
2023/12/28 00:49:54;;;;;;;20.20;10.30;;;;;;;-141.97;nan;46331.47;4916442;29;20173;-82
2023/12/28 00:52:20;;;;;;;19.87;9.50;;;;;;;-141.97;nan;45801.22;4933447;29;20280;-82
2023/12/28 00:54:45;;;;;;;18.30;10.27;;;;;;;-141.97;nan;45843.47;4915960;29;20185;-81
2023/12/28 00:57:10;;;;;;;21.10;10.13;;;;;;;-141.97;nan;45843.47;4916282;29;20228;-81
2023/12/28 00:59:36;;;;;;;22.23;11.27;;;;;;;-141.97;nan;45858.84;4916135;29;20180;-81
2023/12/28 01:02:01;;;;;;;27.57;12.13;;;;;;;-141.97;nan;46354.53;4931951;29;20686;-82
2023/12/28 01:04:27;;;;;;;20.87;10.03;;;;;;;-141.97;nan;46362.22;4933179;29;20691;-82
2023/12/28 01:06:52;;;;;;;32.03;15.30;;;;;;;-141.97;nan;46243.09;4916097;29;20595;-82
2023/12/28 01:09:18;;;;;;;49.93;19.57;;;;;;;-141.97;nan;45812.72;4933299;29;20184;-83
2023/12/28 01:11:44;;;;;;;57.27;24.40;;;;;;;-141.97;nan;45901.09;4916223;29;20260;-83
2023/12/28 01:14:09;;;;;;;60.50;25.03;;;;;;;-141.97;nan;46077.84;4933564;29;20690;-82
2023/12/28 01:16:35;;;;;;;39.90;16.90;;;;;;;-141.97;nan;46525.53;4933277;29;20647;-81
2023/12/28 01:19:01;;;;;;;39.97;17.43;;;;;;;-141.97;nan;46177.75;4932787;29;20175;-82
2023/12/28 01:21:28;;;;;;;23.53;12.90;;;;;;;-141.97;nan;46050.97;4933154;29;20182;-82
2023/12/28 01:23:54;;;;;;;21.63;11.00;;;;;;;-141.97;nan;46027.91;4916054;29;20270;-81
2023/12/28 01:26:20;;;;;;;21.33;11.03;;;;;;;-141.97;nan;45993.31;4932991;29;20925;-82
2023/12/28 01:28:46;;;;;;;21.53;10.97;;;;;;;-141.97;nan;46458.28;4933938;29;20166;-81
2023/12/28 01:31:11;;;;;;;33.80;14.40;;;;;;;-141.97;nan;46366.06;4920578;29;20172;-82
2023/12/28 01:33:36;;;;;;;32.77;14.50;;;;;;;-141.97;nan;45879.97;4937321;29;20193;-81
2023/12/28 01:36:02;;;;;;;50.90;20.17;;;;;;;-141.97;nan;46060.56;4937399;29;20260;-82
2023/12/28 01:38:28;;;;;;;33.87;16.00;;;;;;;-141.97;nan;45968.34;4937502;29;20682;-80
2023/12/28 01:40:53;;;;;;;35.90;18.07;;;;;;;-141.97;nan;45866.53;4937379;29;20256;-82
2023/12/28 01:43:19;;;;;;;38.60;19.53;;;;;;;-141.97;nan;46072.09;4937150;29;20255;-82
2023/12/28 01:45:45;;;;;;;45.00;21.37;;;;;;;-141.97;nan;46350.69;4937478;29;20192;-82
2023/12/28 01:48:13;;;;;;;50.93;27.43;;;;;;;-141.97;nan;46001.00;4920043;29;20169;-82
2023/12/28 01:50:39;;;;;;;66.87;29.80;;;;;;;-141.97;nan;46056.72;4936285;29;20570;-82
2023/12/28 01:53:06;;;;;;;50.33;26.27;;;;;;;-141.97;nan;45935.69;4936360;29;20492;-82
2023/12/28 01:55:33;;;;;;;50.63;26.23;;;;;;;-141.97;nan;46450.59;4936480;29;20433;-82
2023/12/28 01:57:59;;;;;;;46.57;22.03;;;;;;;-141.97;nan;46050.97;4936519;29;20455;-81
2023/12/28 02:00:24;;;;;;;41.37;22.03;;;;;;;-141.97;nan;46079.78;4936350;29;20409;-81
2023/12/28 02:02:51;;;;;;;41.53;19.53;;;;;;;-141.97;nan;46031.75;4936284;29;20173;-81
2023/12/28 02:05:17;;;;;;;38.10;18.97;;;;;;;-141.97;nan;46074.00;4936373;29;20169;-81
2023/12/28 02:07:42;;;;;;;40.73;18.47;;;;;;;-141.97;nan;45937.59;4937880;29;20412;-80
2023/12/28 02:10:08;;;;;;;40.20;19.50;;;;;;;-141.97;nan;46298.81;4920340;29;20412;-81
2023/12/28 02:12:33;;;;;;;36.27;16.93;;;;;;;-141.97;nan;46150.84;4922628;29;20311;-82
2023/12/28 02:15:00;;;;;;;41.53;19.87;;;;;;;-141.97;nan;45858.84;4919154;29;20212;-82
2023/12/28 02:17:30;;;;;;;36.57;17.43;;;;;;;-141.97;nan;46099.00;4936172;29;20215;-82
2023/12/28 02:19:57;;;;;;;31.97;16.67;;;;;;;-141.97;nan;46066.31;4919207;29;20900;-82
2023/12/28 02:22:27;;;;;;;29.23;15.57;;;;;;;-141.97;nan;46075.94;4935870;29;20492;-82
2023/12/28 02:25:08;;;;;;;30.77;16.90;;;;;;;-141.97;nan;46083.63;4934468;29;20422;-82
2023/12/28 02:27:44;;;;;;;31.77;16.73;;;;;;;-141.97;nan;46081.69;4919383;29;20455;-83
2023/12/28 02:30:16;;;;;;;32.23;15.87;;;;;;;-141.97;nan;46102.81;4936264;29;20405;-83
2023/12/28 02:32:49;;;;;;;28.67;15.40;;;;;;;-141.97;nan;46091.31;4936058;29;20464;-83
2023/12/28 02:35:22;;;;;;;36.30;18.17;;;;;;;-141.97;nan;45885.72;4937412;29;20420;-79
2023/12/28 02:37:52;;;;;;;39.23;18.97;;;;;;;-141.97;nan;45958.75;4928570;29;20428;-83
2023/12/28 02:40:18;;;;;;;38.70;18.57;;;;;;;-141.97;nan;46256.53;4920369;29;20432;-82
2023/12/28 02:42:43;;;;;;;47.90;22.43;;;;;;;-141.97;nan;46085.53;4936760;29;20479;-81
2023/12/28 02:45:09;;;;;;;49.37;21.93;;;;;;;-141.97;nan;46465.97;4919845;29;20440;-81
2023/12/28 02:47:35;;;;;;;107.83;56.57;;;;;;;-141.97;nan;46256.53;4937431;29;20208;-82
2023/12/28 02:50:00;;;;;;;71.50;34.63;;;;;;;-141.97;nan;46204.66;4936181;29;20177;-82
2023/12/28 02:52:26;;;;;;;50.07;23.27;;;;;;;-141.97;nan;46052.88;4936750;29;20193;-82
2023/12/28 02:54:51;;;;;;;48.07;22.57;;;;;;;-141.97;nan;46279.59;4936423;29;20594;-83
2023/12/28 02:57:18;;;;;;;51.93;22.63;;;;;;;-141.97;nan;46074.00;4946109;29;20173;-84
2023/12/28 02:59:45;;;;;;;42.20;21.07;;;;;;;-141.97;nan;46154.69;4956771;29;20176;-83
2023/12/28 03:02:10;;;;;;;40.33;17.37;;;;;;;-141.97;nan;46442.91;4950793;29;20485;-83
2023/12/28 03:04:35;;;;;;;37.80;17.30;;;;;;;-141.97;nan;45970.25;4945813;29;20434;-83
2023/12/28 03:07:01;;;;;;;45.80;18.43;;;;;;;-141.97;nan;45928.00;4948570;29;20308;-82
2023/12/28 03:09:26;;;;;;;51.90;23.13;;;;;;;-141.97;nan;45831.94;4945932;29;20177;-82
2023/12/28 03:11:52;;;;;;;40.63;18.70;;;;;;;-141.97;nan;46419.84;4937221;29;20169;-83
2023/12/28 03:14:18;;;;;;;41.33;17.50;;;;;;;-141.97;nan;45904.94;4937914;29;20260;-82
2023/12/28 03:16:43;;;;;;;50.63;22.17;;;;;;;-141.97;nan;45912.63;4937684;29;20309;-82
2023/12/28 03:19:08;;;;;;;39.33;15.30;;;;;;;-141.97;nan;46510.16;4936818;29;20778;-82
2023/12/28 03:21:38;;;;;;;28.03;13.67;;;;;;;-141.97;nan;46106.66;4936116;29;20215;-82
2023/12/28 03:24:04;;;;;;;25.93;11.90;;;;;;;-141.97;nan;46037.50;4935587;29;20287;-81
2023/12/28 03:26:30;;;;;;;28.83;13.73;;;;;;;-141.97;nan;46089.38;4934946;29;20496;-82
2023/12/28 03:28:55;;;;;;;28.97;13.70;;;;;;;-141.97;nan;46093.22;4935090;29;20170;-82
2023/12/28 03:31:20;;;;;;;24.57;12.27;;;;;;;-141.97;nan;45762.78;4935104;29;20172;-81
2023/12/28 03:33:46;;;;;;;25.63;12.10;;;;;;;-141.97;nan;45954.91;4935812;29;20185;-81
2023/12/28 03:36:18;;;;;;;28.70;13.37;;;;;;;-141.97;nan;45945.28;4935701;29;20232;-81
2023/12/28 03:38:43;;;;;;;24.13;12.13;;;;;;;-141.97;nan;45947.22;4935863;29;20569;-81
2023/12/28 03:41:19;;;;;;;22.50;12.37;;;;;;;-141.97;nan;46097.06;4935347;29;20411;-81
2023/12/28 03:43:45;;;;;;;36.20;18.27;;;;;;;-141.97;nan;46435.22;4935977;29;20236;-81
2023/12/28 03:46:11;;;;;;;36.53;17.53;;;;;;;-141.97;nan;46100.91;4918398;29;20427;-81
2023/12/28 03:48:36;;;;;;;33.97;16.03;;;;;;;-141.97;nan;46112.44;4935468;29;20411;-82
2023/12/28 03:51:02;;;;;;;223.37;106.17;;;;;;;-141.97;nan;46093.22;4936655;29;20642;-81
2023/12/28 03:53:28;;;;;;;283.53;131.07;;;;;;;-141.97;nan;46102.81;4934900;29;20193;-81
2023/12/28 03:55:53;;;;;;;111.47;48.73;;;;;;;-141.97;nan;46500.56;4935223;29;20631;-81
2023/12/28 03:58:19;;;;;;;101.37;47.50;;;;;;;-141.97;nan;45851.16;4935597;29;20173;-82
2023/12/28 04:00:44;;;;;;;119.60;54.73;;;;;;;-141.97;nan;46014.44;4935437;29;20605;-81
2023/12/28 04:03:10;;;;;;;103.53;48.33;;;;;;;-141.97;nan;46100.91;4934773;29;21305;-81
2023/12/28 04:05:35;;;;;;;124.83;55.20;;;;;;;-141.97;nan;46510.16;4935037;29;20169;-81
2023/12/28 04:08:01;;;;;;;95.17;43.77;;;;;;;-141.97;nan;46118.19;4935163;29;20168;-81
2023/12/28 04:10:33;;;;;;;87.53;41.03;;;;;;;-141.97;nan;46473.66;4934963;29;20192;-81
2023/12/28 04:13:00;;;;;;;66.67;32.13;;;;;;;-141.97;nan;46079.78;4934450;29;20197;-82
2023/12/28 04:15:28;;;;;;;52.40;27.40;;;;;;;-141.97;nan;45906.88;4934246;29;20829;-81
2023/12/28 04:17:53;;;;;;;35.33;17.57;;;;;;;-141.97;nan;45893.41;4934080;29;20425;-82
2023/12/28 04:20:19;;;;;;;50.67;23.60;;;;;;;-141.97;nan;45928.00;4917245;29;20409;-81
2023/12/28 04:22:45;;;;;;;42.53;22.83;;;;;;;-141.97;nan;46343.00;4916736;29;20170;-83
2023/12/28 04:25:10;;;;;;;58.63;27.40;;;;;;;-141.97;nan;46498.63;4916847;29;20311;-81
2023/12/28 04:27:36;;;;;;;83.97;37.07;;;;;;;-141.97;nan;46450.59;4933825;29;20636;-81
2023/12/28 04:30:02;;;;;;;95.10;42.47;;;;;;;-141.97;nan;46369.88;4916794;29;20177;-82
2023/12/28 04:32:27;;;;;;;272.70;97.17;;;;;;;-141.97;nan;46008.69;4933643;29;20576;-82
2023/12/28 04:34:56;;;;;;;165.07;57.73;;;;;;;-141.97;nan;46079.78;4934055;29;20177;-80
2023/12/28 04:37:21;;;;;;;110.73;41.03;;;;;;;-141.97;nan;46102.81;4934163;29;20169;-81
2023/12/28 04:39:47;;;;;;;72.10;26.00;;;;;;;-141.97;nan;46095.16;4933620;29;20401;-81
2023/12/28 04:42:12;;;;;;;72.73;27.37;;;;;;;-141.97;nan;46099.00;4933167;29;20649;-81
2023/12/28 04:44:38;;;;;;;95.60;39.93;;;;;;;-141.97;nan;46054.81;4933839;29;20622;-81
2023/12/28 04:47:04;;;;;;;64.63;29.40;;;;;;;-141.97;nan;46118.19;4934085;29;20222;-82
2023/12/28 04:49:30;;;;;;;46.03;20.70;;;;;;;-141.97;nan;46064.41;4916645;29;20917;-83
2023/12/28 04:51:55;;;;;;;69.80;30.63;;;;;;;-141.97;nan;46373.72;4933822;29;20615;-82
2023/12/28 04:54:21;;;;;;;65.87;28.33;;;;;;;-141.97;nan;46062.47;4933710;29;20216;-82
2023/12/28 04:56:46;;;;;;;88.97;36.17;;;;;;;-141.97;nan;46100.91;4933685;29;20673;-81
2023/12/28 04:59:12;;;;;;;83.47;34.77;;;;;;;-141.97;nan;45835.78;4917023;29;20174;-82
2023/12/28 05:01:43;;;;;;;49.13;22.73;;;;;;;-141.97;nan;46024.06;4946459;29;20161;-77
2023/12/28 05:04:09;;;;;;;47.67;21.27;;;;;;;-141.97;nan;46058.63;4941423;29;20237;-82
2023/12/28 05:06:35;;;;;;;43.70;19.30;;;;;;;-141.97;nan;46099.00;4936924;29;20897;-82
2023/12/28 05:09:01;;;;;;;44.50;18.77;;;;;;;-141.97;nan;46085.53;4936717;29;20257;-83
2023/12/28 05:11:27;;;;;;;36.57;15.57;;;;;;;-141.97;nan;45970.25;4936759;29;20158;-83
2023/12/28 05:13:53;;;;;;;28.50;12.93;;;;;;;-141.97;nan;46100.91;4936654;29;20193;-82
2023/12/28 05:16:19;;;;;;;29.90;12.60;;;;;;;-141.97;nan;46122.03;4919592;29;20788;-82
2023/12/28 05:18:44;;;;;;;27.40;11.87;;;;;;;-141.97;nan;46020.22;4936493;29;20488;-82
2023/12/28 05:21:10;;;;;;;30.43;14.03;;;;;;;-141.97;nan;46066.31;4936504;29;20248;-82
2023/12/28 05:23:35;;;;;;;38.10;20.67;;;;;;;-141.97;nan;45981.78;4936490;29;20630;-83
2023/12/28 05:26:00;;;;;;;69.00;31.53;;;;;;;-141.97;nan;46106.66;4936494;29;20161;-82
2023/12/28 05:28:26;;;;;;;62.73;34.70;;;;;;;-141.97;nan;45962.59;4936456;29;20181;-81
2023/12/28 05:30:51;;;;;;;53.37;28.93;;;;;;;-141.97;nan;46137.41;4936353;29;20275;-82
2023/12/28 05:33:17;;;;;;;110.53;45.50;;;;;;;-141.97;nan;46139.34;4936155;29;20332;-82
2023/12/28 05:35:42;;;;;;;83.00;36.43;;;;;;;-141.97;nan;46369.88;4936226;29;20161;-83
2023/12/28 05:38:07;;;;;;;159.57;62.23;;;;;;;-141.97;nan;45964.50;4936182;29;20219;-82
2023/12/28 05:40:33;;;;;;;242.20;92.67;;;;;;;-141.97;nan;46075.94;4936386;29;20287;-82
2023/12/28 05:42:58;;;;;;;194.07;74.90;;;;;;;-141.97;nan;46020.22;4938763;29;20380;-82
2023/12/28 05:45:24;;;;;;;112.00;46.00;;;;;;;-141.97;nan;46531.28;4940215;29;20180;-82
2023/12/28 05:47:50;;;;;;;55.47;25.17;;;;;;;-141.97;nan;46125.88;4919530;29;20181;-82
2023/12/28 05:50:15;;;;;;;49.07;22.43;;;;;;;-141.97;nan;46100.91;4936047;29;20166;-82
2023/12/28 05:52:40;;;;;;;55.93;28.60;;;;;;;-141.97;nan;46125.88;4936343;29;20986;-81
2023/12/28 05:55:06;;;;;;;96.30;41.77;;;;;;;-141.97;nan;46423.69;4941655;29;20170;-83
2023/12/28 05:57:32;;;;;;;127.77;52.73;;;;;;;-141.97;nan;46097.06;4940215;29;20619;-82
2023/12/28 05:59:57;;;;;;;121.07;48.77;;;;;;;-141.97;nan;46127.81;4938998;29;20193;-81
2023/12/28 06:02:23;;;;;;;112.60;49.83;;;;;;;-141.97;nan;45968.34;4921476;29;20177;-80
2023/12/28 06:04:48;;;;;;;103.00;47.97;;;;;;;-141.97;nan;46502.47;4921422;29;20169;-82
2023/12/28 06:07:14;;;;;;;113.90;49.07;;;;;;;-141.97;nan;45893.41;4938580;29;20177;-82
2023/12/28 06:09:39;;;;;;;135.30;55.63;;;;;;;-141.97;nan;46281.50;4935609;29;20581;-82
2023/12/28 06:12:05;;;;;;;128.10;52.63;;;;;;;-141.97;nan;46093.22;4936005;29;20162;-82
2023/12/28 06:14:30;;;;;;;107.00;45.07;;;;;;;-141.97;nan;46116.28;4935308;29;20189;-83
2023/12/28 06:16:56;;;;;;;162.03;61.87;;;;;;;-141.97;nan;46346.84;4936225;29;20900;-82
2023/12/28 06:19:22;;;;;;;196.13;76.17;;;;;;;-141.97;nan;46006.78;4935992;29;20277;-82
2023/12/28 06:21:48;;;;;;;153.30;61.70;;;;;;;-141.97;nan;46033.66;4936063;29;20158;-81
2023/12/28 06:24:13;;;;;;;147.70;55.27;;;;;;;-141.97;nan;45928.00;4937040;29;20611;-82
2023/12/28 06:26:43;;;;;;;89.37;35.67;;;;;;;-141.97;nan;46087.47;4919725;29;20471;-83
2023/12/28 06:29:11;;;;;;;54.17;25.70;;;;;;;-141.97;nan;45812.72;4922134;29;20188;-80
2023/12/28 06:31:37;;;;;;;42.27;20.83;;;;;;;-141.97;nan;45806.97;4940020;29;20413;-82
2023/12/28 06:34:06;;;;;;;40.23;18.17;;;;;;;-141.97;nan;46089.38;4942365;29;20457;-82
2023/12/28 06:36:33;;;;;;;36.57;16.43;;;;;;;-141.97;nan;45999.09;4921099;29;20184;-82
2023/12/28 06:38:59;;;;;;;33.07;14.60;;;;;;;-141.97;nan;46077.84;4921435;29;20421;-82
2023/12/28 06:41:25;;;;;;;31.30;15.27;;;;;;;-141.97;nan;46271.91;4922535;29;20421;-83
2023/12/28 06:43:51;;;;;;;35.50;15.00;;;;;;;-141.97;nan;46212.34;4939658;29;20486;-82
2023/12/28 06:46:17;;;;;;;27.67;13.53;;;;;;;-141.97;nan;46012.53;4935288;29;20972;-82
2023/12/28 06:48:43;;;;;;;29.93;13.30;;;;;;;-141.97;nan;46018.28;4935537;29;20439;-82
2023/12/28 06:51:09;;;;;;;82.90;41.73;;;;;;;-141.97;nan;46392.94;4935944;29;20471;-82
2023/12/28 06:53:35;;;;;;;62.13;28.37;;;;;;;-141.97;nan;45972.19;4923146;28;20298;-82
2023/12/28 06:56:00;;;;;;;50.57;22.73;;;;;;;-141.97;nan;46056.72;4984788;28;20445;-85
2023/12/28 06:58:25;;;;;;;29.60;13.23;;;;;;;-141.97;nan;46024.06;4964342;28;20244;-86
2023/12/28 07:00:51;;;;;;;26.40;12.70;;;;;;;-141.97;nan;45985.63;4974886;28;20636;-86
2023/12/28 07:03:16;;;;;;;32.63;12.40;;;;;;;-141.97;nan;45864.59;4979204;28;20164;-86
2023/12/28 07:05:42;;;;;;;32.20;13.90;;;;;;;-141.97;nan;45780.06;4977618;28;20179;-85
2023/12/28 07:08:07;;;;;;;32.40;12.70;;;;;;;-141.97;nan;45726.28;4957947;28;20259;-85
2023/12/28 07:10:33;;;;;;;28.27;12.80;;;;;;;-141.97;nan;45689.78;4975831;28;20188;-85
2023/12/28 07:12:58;;;;;;;23.83;13.27;;;;;;;-141.97;nan;45876.13;4975944;28;20268;-84
2023/12/28 07:15:25;;;;;;;27.17;13.00;;;;;;;-141.97;nan;45845.41;4974888;28;20548;-85
2023/12/28 07:17:50;;;;;;;27.57;14.63;;;;;;;-141.97;nan;46271.91;4975807;28;20156;-84
2023/12/28 07:20:16;;;;;;;25.43;13.93;;;;;;;-141.97;nan;45732.06;4975898;28;20607;-84
2023/12/28 07:22:41;;;;;;;26.23;14.07;;;;;;;-141.97;nan;45849.25;4980372;28;20158;-83
2023/12/28 07:25:07;;;;;;;39.00;18.67;;;;;;;-141.97;nan;45751.25;4983150;28;20195;-85
2023/12/28 07:27:34;;;;;;;29.73;15.60;;;;;;;-141.97;nan;45889.56;4990649;28;20191;-86
2023/12/28 07:30:00;;;;;;;29.47;17.30;;;;;;;-141.97;nan;46385.25;4997296;28;20355;-84
2023/12/28 07:32:26;;;;;;;38.37;20.30;;;;;;;-141.97;nan;46291.13;4996815;28;20165;-85
2023/12/28 07:34:54;;;;;;;31.67;17.20;;;;;;;-141.97;nan;46097.06;4996345;28;20172;-85
2023/12/28 07:37:20;;;;;;;34.80;19.93;;;;;;;-141.97;nan;46369.88;4996598;28;20164;-87
2023/12/28 07:39:47;;;;;;;33.77;19.13;;;;;;;-141.97;nan;46308.41;4993372;28;20165;-84
2023/12/28 07:42:12;;;;;;;29.53;15.97;;;;;;;-141.97;nan;45833.88;4977414;28;20549;-87
2023/12/28 07:44:37;;;;;;;50.20;23.90;;;;;;;-141.97;nan;45951.06;4975864;28;20168;-88
2023/12/28 07:47:03;;;;;;;41.10;20.53;;;;;;;-141.97;nan;46110.50;4956650;28;20195;-87
2023/12/28 07:49:30;;;;;;;28.47;15.13;;;;;;;-141.97;nan;45903.03;4956136;28;20290;-87
2023/12/28 07:51:56;;;;;;;26.17;14.47;;;;;;;-141.97;nan;45968.34;4978711;28;20609;-86
2023/12/28 07:54:22;;;;;;;29.33;14.57;;;;;;;-141.97;nan;45976.03;4958449;28;20510;-86
2023/12/28 07:56:47;;;;;;;25.30;14.40;;;;;;;-141.97;nan;46002.94;4972830;28;20606;-87
2023/12/28 07:59:12;;;;;;;46.40;22.87;;;;;;;-141.97;nan;45887.66;4974584;28;20663;-86
2023/12/28 08:01:38;;;;;;;41.40;21.13;;;;;;;-141.97;nan;46371.81;4956053;28;20172;-87
2023/12/28 08:04:03;;;;;;;41.87;22.13;;;;;;;-141.97;nan;46158.53;4974053;28;20195;-86
2023/12/28 08:06:32;;;;;;;31.87;17.60;;;;;;;-141.97;nan;45977.94;4974072;28;20200;-86
2023/12/28 08:08:59;;;;;;;36.70;17.57;;;;;;;-141.97;nan;46400.63;4973856;28;20195;-86
2023/12/28 08:11:24;;;;;;;38.70;18.83;;;;;;;-141.97;nan;45812.72;4973452;28;20301;-86
2023/12/28 08:13:50;;;;;;;28.10;14.43;;;;;;;-141.97;nan;46287.28;4974627;28;20199;-86
2023/12/28 08:16:16;;;;;;;31.00;16.47;;;;;;;-141.97;nan;45839.63;4938379;29;20216;-85
2023/12/28 08:18:41;;;;;;;37.43;19.70;;;;;;;-141.97;nan;46373.72;4954268;29;20412;-84
2023/12/28 08:21:07;;;;;;;31.63;15.13;;;;;;;-141.97;nan;45995.25;4953410;29;20180;-87
2023/12/28 08:23:32;;;;;;;27.80;14.60;;;;;;;-141.97;nan;45999.09;4921011;29;20191;-85
2023/12/28 08:25:58;;;;;;;29.57;15.97;;;;;;;-141.97;nan;45949.13;4936476;29;20597;-86
2023/12/28 08:28:23;;;;;;;32.47;17.83;;;;;;;-141.97;nan;45835.78;4936969;29;20234;-85
2023/12/28 08:30:49;;;;;;;34.83;20.83;;;;;;;-141.97;nan;46227.72;4953637;29;20180;-86
2023/12/28 08:33:14;;;;;;;42.00;22.60;;;;;;;-141.97;nan;45755.09;4936355;29;20342;-88
2023/12/28 08:35:40;;;;;;;33.67;17.00;;;;;;;-141.97;nan;45845.41;4953746;29;20196;-86
2023/12/28 08:38:06;;;;;;;34.43;18.63;;;;;;;-141.97;nan;45945.28;4939777;29;20184;-85
2023/12/28 08:40:32;;;;;;;51.80;25.60;;;;;;;-141.97;nan;45739.72;4955070;29;20569;-85
2023/12/28 08:42:57;;;;;;;53.87;24.93;;;;;;;-141.97;nan;46246.94;4935920;29;20295;-86
2023/12/28 08:45:23;;;;;;;45.30;24.80;;;;;;;-141.97;nan;46008.69;4936713;29;20185;-84
2023/12/28 08:47:48;;;;;;;38.23;19.90;;;;;;;-141.97;nan;46229.63;4936012;29;20227;-85
2023/12/28 08:50:14;;;;;;;39.43;22.03;;;;;;;-141.97;nan;45849.25;4953243;29;20173;-87
2023/12/28 08:52:39;;;;;;;74.77;38.03;;;;;;;-141.97;nan;45916.47;4935443;29;20752;-86
2023/12/28 08:55:06;;;;;;;47.50;24.50;;;;;;;-141.97;nan;45858.84;4953032;29;20183;-88
2023/12/28 08:57:31;;;;;;;40.60;20.60;;;;;;;-141.97;nan;45878.06;4952892;29;20164;-86
2023/12/28 08:59:57;;;;;;;39.23;20.73;;;;;;;-141.97;nan;45841.56;4935151;29;20177;-85
2023/12/28 09:02:23;;;;;;;48.93;24.40;;;;;;;-141.97;nan;46275.75;4936570;29;20172;-85
2023/12/28 09:04:48;;;;;;;34.07;18.53;;;;;;;-141.97;nan;45862.69;4941421;29;20682;-84
2023/12/28 09:07:16;;;;;;;27.57;15.33;;;;;;;-141.97;nan;45899.19;4956121;29;20164;-86
2023/12/28 09:09:42;;;;;;;26.97;15.13;;;;;;;-141.97;nan;46298.81;4953187;29;20244;-85
2023/12/28 09:12:07;;;;;;;26.60;14.87;;;;;;;-141.97;nan;46173.91;4937611;29;20239;-87
2023/12/28 09:14:33;;;;;;;122.17;45.77;;;;;;;-141.97;nan;46235.41;4935813;29;20196;-86
2023/12/28 09:16:58;;;;;;;35.37;18.97;;;;;;;-141.97;nan;45791.59;4936017;29;20231;-86
2023/12/28 09:19:24;;;;;;;31.67;16.93;;;;;;;-141.97;nan;45974.09;4953347;29;20232;-85
2023/12/28 09:21:49;;;;;;;32.03;17.50;;;;;;;-141.97;nan;46162.38;4952532;29;20196;-86
2023/12/28 09:24:15;;;;;;;24.20;13.70;;;;;;;-141.97;nan;45730.13;4953472;29;20173;-88
2023/12/28 09:26:41;;;;;;;26.37;13.80;;;;;;;-141.97;nan;45797.38;4954829;29;20168;-85
2023/12/28 09:29:06;;;;;;;23.83;13.40;;;;;;;-141.97;nan;45707.06;4937578;29;20192;-86
2023/12/28 09:31:32;;;;;;;27.00;15.67;;;;;;;-141.97;nan;45733.97;4953852;29;20547;-84
2023/12/28 09:33:58;;;;;;;29.37;15.53;;;;;;;-141.97;nan;45918.41;4935735;29;20200;-86
2023/12/28 09:36:23;;;;;;;25.70;14.97;;;;;;;-141.97;nan;45743.56;4952704;29;20324;-86
2023/12/28 09:38:51;;;;;;;29.87;16.57;;;;;;;-141.97;nan;46185.44;4935034;29;20191;-87
2023/12/28 09:41:18;;;;;;;27.63;16.00;;;;;;;-141.97;nan;45693.63;4935181;29;20655;-86
2023/12/28 09:43:56;;;;;;;22.57;12.10;;;;;;;-141.97;nan;45895.34;4955359;28;20223;-88
2023/12/28 09:46:22;;;;;;;25.27;14.20;;;;;;;-141.97;nan;46179.69;4948890;28;20629;-86
2023/12/28 09:48:48;;;;;;;20.77;13.27;;;;;;;-141.97;nan;45855.00;4956510;28;20223;-87
2023/12/28 09:51:13;;;;;;;22.97;11.50;;;;;;;-141.97;nan;45674.41;4942823;29;20239;-87
2023/12/28 09:53:39;;;;;;;24.57;12.93;;;;;;;-141.97;nan;45855.00;4959128;29;20197;-88
2023/12/28 09:56:05;;;;;;;22.90;12.43;;;;;;;-141.97;nan;45841.56;4970299;29;20173;-85
2023/12/28 09:58:33;;;;;;;18.23;10.53;;;;;;;-141.97;nan;45814.66;4977811;28;20165;-87
2023/12/28 10:00:59;;;;;;;18.53;11.80;;;;;;;-141.97;nan;45680.19;4975207;28;20177;-86
2023/12/28 10:03:25;;;;;;;21.87;13.27;;;;;;;-141.97;nan;45751.25;4958684;29;20173;-86
2023/12/28 10:05:50;;;;;;;37.87;21.60;;;;;;;-141.97;nan;46147.03;4957606;29;20188;-86
2023/12/28 10:08:16;;;;;;;35.83;18.03;;;;;;;-141.97;nan;46045.19;5004645;23;20247;-85
2023/12/28 10:10:43;;;;;;;24.60;14.80;;;;;;;-141.97;nan;45735.91;4978329;28;20179;-86
2023/12/28 10:13:09;;;;;;;21.47;11.70;;;;;;;-141.97;nan;45753.19;4959462;28;20207;-87
2023/12/28 10:15:38;;;;;;;23.33;12.70;;;;;;;-141.97;nan;45824.25;4978536;28;20175;-86
2023/12/28 10:18:04;;;;;;;22.50;10.80;;;;;;;-141.97;nan;45789.69;4976707;28;20168;-87
2023/12/28 10:20:31;;;;;;;19.20;11.63;;;;;;;-141.97;nan;45799.28;4976278;28;20910;-86
2023/12/28 10:22:58;;;;;;;20.30;10.77;;;;;;;-141.97;nan;45693.63;4957866;28;20187;-86
2023/12/28 10:25:24;;;;;;;22.03;12.90;;;;;;;-141.97;nan;45749.34;4974918;28;20536;-86
2023/12/28 10:27:53;;;;;;;17.47;11.60;;;;;;;-141.97;nan;45662.91;4977260;28;20160;-88
2023/12/28 10:30:20;;;;;;;17.17;9.90;;;;;;;-141.97;nan;45928.00;4974699;28;20214;-86
2023/12/28 10:32:46;;;;;;;18.73;10.87;;;;;;;-141.97;nan;46131.66;4974779;28;20251;-85
2023/12/28 10:35:11;;;;;;;21.67;11.50;;;;;;;-141.97;nan;46027.91;4957731;28;20180;-87
2023/12/28 10:37:41;;;;;;;21.17;12.33;;;;;;;-141.97;nan;46208.50;4975902;28;20231;-87
2023/12/28 10:40:07;;;;;;;20.77;12.90;;;;;;;-141.97;nan;45816.56;4957827;28;20175;-86
2023/12/28 10:42:43;;;;;;;21.80;13.43;;;;;;;-141.97;nan;46133.56;4975879;28;20156;-86
2023/12/28 10:45:10;;;;;;;27.20;17.00;;;;;;;-141.97;nan;45787.75;4958869;28;20544;-86
2023/12/28 10:47:42;;;;;;;24.60;14.87;;;;;;;-141.97;nan;45951.06;4958786;28;20548;-86
2023/12/28 10:50:10;;;;;;;26.43;13.20;;;;;;;-141.97;nan;46108.59;4975462;28;20167;-87
2023/12/28 10:52:37;;;;;;;21.63;12.83;;;;;;;-141.97;nan;45745.50;4976604;28;20591;-87
2023/12/28 10:55:30;;;;;;;31.03;15.60;;;;;;;-141.97;nan;45783.91;4993499;28;20163;-88
2023/12/28 10:58:11;;;;;;;27.33;16.57;;;;;;;-141.97;nan;45720.53;4993942;28;20309;-87
2023/12/28 11:00:44;;;;;;;30.37;16.53;;;;;;;-141.97;nan;45782.00;4958452;28;20191;-89
2023/12/28 11:03:11;;;;;;;27.63;16.53;;;;;;;-141.97;nan;46097.06;4959050;28;20162;-88
2023/12/28 11:05:40;;;;;;;30.87;18.63;;;;;;;-141.97;nan;45724.38;4977070;28;20164;-88
2023/12/28 11:08:07;;;;;;;26.43;15.33;;;;;;;-141.97;nan;45710.91;4977295;28;20286;-87
2023/12/28 11:10:34;;;;;;;20.47;13.00;;;;;;;-141.97;nan;45620.63;4959878;28;20168;-88
2023/12/28 11:13:01;;;;;;;21.10;13.17;;;;;;;-141.97;nan;45647.53;4960658;28;20250;-87